De Soto, WI (54624)

6:55 AM CDT on August 30, 2015 (GMT -0500)
DeSoto WI | | Change Station
CLOSE
Current Station
Personal Weather Station
Location: DeSoto, WI
Elevation: 778 ft
Nearby Weather Stations

Elev 778 ft 43.44 °N, 91.21 °W | Updated 23 seconds ago

Overcast
Overcast
60.0 °F
Feels Like 60.0 °F
N
0.0
Wind Variable Wind from East
Gusts 0.0 mph

Today
High -- | Low -- °F
--% Chance of Precip.
Yesterday
High -- | Low -- °F
Precip. -- in
6:26 AM 7:43 PM
Full, 99% visible
Pressure 30.04 in
Visibility 0.2 miles
Clouds
Dew Point 59 °F
Humidity 96%
Rainfall 0.00 in
Snow Depth Not available.
UV Not available.
Pollen 9.90 out of 12
Air Quality Not available.
Flu Activity Not available.
METAR KLSE 301153Z 11005KT M1/4SM FG VV002 15/15 A3005 RMK AO2 SLP173 T01500150 10161 20144 53009
Pressure 30.04 in
Visibility 0.2 miles
Clouds
Dew Point 59 °F
Humidity 96%
Rainfall 0.00 in
Snow Depth Not available.
UV Not available.
Pollen 9.90 out of 12
Air Quality Not available.
Flu Activity Not available.
METAR KLSE 301153Z 11005KT M1/4SM FG VV002 15/15 A3005 RMK AO2 SLP173 T01500150 10161 20144 53009

10-Day Weather Forecast

×

Almanac

Astronomy

Aug. 30, 2015 Rise Set
Actual Time
Civil Twilight
Nautical Twilight
Astronomical Twilight
Moon
Length of Visible Light
Length of Day
Tomorrow will be .
, % of the Moon is Illuminated

Today's Extremes

State Highs State Lows

Community

WunderPhotos

Upload Photos

1,850,930 photos uploaded!

WunderBlogs® & News

Nearby

Air Quality

  Air Quality AQ Index Pollutant
Not available.

Snow Depth

Station Depth Elevation

Earthquake Activity

City Distance Mag. Time & Date
Minimum magnitude displayed is 2.5.

Coastal Water Temperatures

Place Temperature

Stations

Nearby Weather Stations

Station Location Temp. Windchill Dew Point Humidity Wind Precip. Elev Updated Type